sensor_id;sensor_type;location;lat;lon;timestamp;pressure;altitude;pressure_sealevel;temperature;humidity
71424;BME280;59240;51.370;-0.486;2023-04-19T00:00:15;102446.22;;;9.57;72.07
71424;BME280;59240;51.370;-0.486;2023-04-19T00:02:42;102444.44;;;9.50;71.23
71424;BME280;59240;51.370;-0.486;2023-04-19T00:05:09;102485.38;;;9.69;71.44
71424;BME280;59240;51.370;-0.486;2023-04-19T00:07:39;102467.03;;;9.55;72.34
71424;BME280;59240;51.370;-0.486;2023-04-19T00:10:06;102509.72;;;9.77;71.58
71424;BME280;59240;51.370;-0.486;2023-04-19T00:12:33;102478.38;;;9.62;72.21
71424;BME280;59240;51.370;-0.486;2023-04-19T00:14:59;102472.25;;;9.57;73.06
71424;BME280;59240;51.370;-0.486;2023-04-19T00:17:26;102457.38;;;9.47;72.88
71424;BME280;59240;51.370;-0.486;2023-04-19T00:19:53;102464.38;;;9.49;72.28
71424;BME280;59240;51.370;-0.486;2023-04-19T00:22:19;102492.28;;;9.67;73.25
71424;BME280;59240;51.370;-0.486;2023-04-19T00:24:46;102478.31;;;9.56;72.97
71424;BME280;59240;51.370;-0.486;2023-04-19T00:27:12;102458.25;;;9.46;72.16
71424;BME280;59240;51.370;-0.486;2023-04-19T00:29:39;102467.84;;;9.50;72.21
71424;BME280;59240;51.370;-0.486;2023-04-19T00:32:06;102469.53;;;9.45;72.99
71424;BME280;59240;51.370;-0.486;2023-04-19T00:34:32;102461.69;;;9.42;72.96
71424;BME280;59240;51.370;-0.486;2023-04-19T00:36:59;102446.91;;;9.38;72.98
71424;BME280;59240;51.370;-0.486;2023-04-19T00:39:26;102447.72;;;9.30;73.26
71424;BME280;59240;51.370;-0.486;2023-04-19T00:41:52;102472.13;;;9.45;73.15
71424;BME280;59240;51.370;-0.486;2023-04-19T00:44:19;102437.25;;;9.24;73.99
71424;BME280;59240;51.370;-0.486;2023-04-19T00:46:46;102426.75;;;9.15;74.09
71424;BME280;59240;51.370;-0.486;2023-04-19T00:49:14;102445.94;;;9.26;74.25
71424;BME280;59240;51.370;-0.486;2023-04-19T00:51:41;102463.31;;;9.30;74.00
71424;BME280;59240;51.370;-0.486;2023-04-19T00:54:07;102445.03;;;9.23;74.85
71424;BME280;59240;51.370;-0.486;2023-04-19T00:56:34;102458.97;;;9.28;73.99
71424;BME280;59240;51.370;-0.486;2023-04-19T00:59:01;102454.59;;;9.25;75.11
71424;BME280;59240;51.370;-0.486;2023-04-19T01:01:28;102431.88;;;9.09;74.00
71424;BME280;59240;51.370;-0.486;2023-04-19T01:03:55;102432.78;;;9.11;74.30
71424;BME280;59240;51.370;-0.486;2023-04-19T01:06:22;102403.97;;;8.91;74.01
71424;BME280;59240;51.370;-0.486;2023-04-19T01:08:49;102445.81;;;9.14;74.20
71424;BME280;59240;51.370;-0.486;2023-04-19T01:11:15;102457.97;;;9.18;75.56
71424;BME280;59240;51.370;-0.486;2023-04-19T01:13:42;102456.25;;;9.17;75.13
71424;BME280;59240;51.370;-0.486;2023-04-19T01:16:09;102457.97;;;9.15;76.26
71424;BME280;59240;51.370;-0.486;2023-04-19T01:18:36;102426.59;;;9.00;75.13
71424;BME280;59240;51.370;-0.486;2023-04-19T01:21:05;102424.81;;;8.96;75.27
71424;BME280;59240;51.370;-0.486;2023-04-19T01:23:32;102417.00;;;8.96;75.26
71424;BME280;59240;51.370;-0.486;2023-04-19T01:26:00;102400.41;;;8.83;75.54
71424;BME280;59240;51.370;-0.486;2023-04-19T01:28:27;102442.28;;;9.06;75.92
71424;BME280;59240;51.370;-0.486;2023-04-19T01:30:54;102430.00;;;8.96;75.58
71424;BME280;59240;51.370;-0.486;2023-04-19T01:33:21;102397.75;;;8.77;75.29
71424;BME280;59240;51.370;-0.486;2023-04-19T01:35:48;102446.56;;;9.04;74.99
71424;BME280;59240;51.370;-0.486;2023-04-19T01:38:15;102419.53;;;8.90;75.33
71424;BME280;59240;51.370;-0.486;2023-04-19T01:40:42;102424.75;;;8.91;75.78
71424;BME280;59240;51.370;-0.486;2023-04-19T01:43:14;102425.63;;;8.90;75.90
71424;BME280;59240;51.370;-0.486;2023-04-19T01:45:41;102423.03;;;8.92;76.34
71424;BME280;59240;51.370;-0.486;2023-04-19T01:48:08;102416.88;;;8.84;75.80
71424;BME280;59240;51.370;-0.486;2023-04-19T01:50:34;102404.69;;;8.78;75.57
71424;BME280;59240;51.370;-0.486;2023-04-19T01:53:01;102405.53;;;8.75;76.06
71424;BME280;59240;51.370;-0.486;2023-04-19T01:55:28;102426.41;;;8.85;76.72
71424;BME280;59240;51.370;-0.486;2023-04-19T01:57:54;102415.97;;;8.79;75.73
71424;BME280;59240;51.370;-0.486;2023-04-19T02:00:21;102421.16;;;8.79;76.76
71424;BME280;59240;51.370;-0.486;2023-04-19T02:02:48;102416.78;;;8.76;76.83
71424;BME280;59240;51.370;-0.486;2023-04-19T02:05:15;102402.88;;;8.71;76.36
71424;BME280;59240;51.370;-0.486;2023-04-19T02:07:41;102389.72;;;8.57;76.61
71424;BME280;59240;51.370;-0.486;2023-04-19T02:10:09;102411.56;;;8.73;76.97
71424;BME280;59240;51.370;-0.486;2023-04-19T02:12:40;102407.16;;;8.67;76.43
71424;BME280;59240;51.370;-0.486;2023-04-19T02:15:06;102387.06;;;8.53;76.91
71424;BME280;59240;51.370;-0.486;2023-04-19T02:17:33;102399.31;;;8.64;76.89
71424;BME280;59240;51.370;-0.486;2023-04-19T02:20:01;102405.44;;;8.69;77.19
71424;BME280;59240;51.370;-0.486;2023-04-19T02:22:29;102387.97;;;8.56;77.50
71424;BME280;59240;51.370;-0.486;2023-04-19T02:24:56;102373.16;;;8.47;77.33
71424;BME280;59240;51.370;-0.486;2023-04-19T02:27:22;102390.56;;;8.56;77.07
71424;BME280;59240;51.370;-0.486;2023-04-19T02:29:49;102402.81;;;8.65;77.47
71424;BME280;59240;51.370;-0.486;2023-04-19T02:32:16;102381.00;;;8.52;77.27
71424;BME280;59240;51.370;-0.486;2023-04-19T02:34:42;102351.31;;;8.35;77.40
71424;BME280;59240;51.370;-0.486;2023-04-19T02:37:09;102388.81;;;8.55;77.32
71424;BME280;59240;51.370;-0.486;2023-04-19T02:39:35;102357.44;;;8.37;78.25
71424;BME280;59240;51.370;-0.486;2023-04-19T02:42:02;102393.22;;;8.59;78.66
71424;BME280;59240;51.370;-0.486;2023-04-19T02:44:29;102381.91;;;8.56;77.77
71424;BME280;59240;51.370;-0.486;2023-04-19T02:46:55;102363.56;;;8.42;78.01
71424;BME280;59240;51.370;-0.486;2023-04-19T02:49:23;102374.00;;;8.45;78.48
71424;BME280;59240;51.370;-0.486;2023-04-19T02:51:49;102372.28;;;8.45;77.78
71424;BME280;59240;51.370;-0.486;2023-04-19T02:54:18;102380.09;;;8.50;78.54
71424;BME280;59240;51.370;-0.486;2023-04-19T02:56:44;102353.09;;;8.36;78.76
71424;BME280;59240;51.370;-0.486;2023-04-19T02:59:11;102396.69;;;8.58;78.01
71424;BME280;59240;51.370;-0.486;2023-04-19T03:01:37;102378.44;;;8.54;78.91
71424;BME280;59240;51.370;-0.486;2023-04-19T03:04:04;102381.88;;;8.53;78.50
71424;BME280;59240;51.370;-0.486;2023-04-19T03:06:30;102370.63;;;8.52;78.69
71424;BME280;59240;51.370;-0.486;2023-04-19T03:08:57;102383.72;;;8.61;78.70
71424;BME280;59240;51.370;-0.486;2023-04-19T03:11:24;102357.56;;;8.46;79.73
71424;BME280;59240;51.370;-0.486;2023-04-19T03:13:50;102340.19;;;8.42;79.77
71424;BME280;59240;51.370;-0.486;2023-04-19T03:16:17;102337.56;;;8.39;79.60
71424;BME280;59240;51.370;-0.486;2023-04-19T03:18:44;102355.91;;;8.51;79.09
71424;BME280;59240;51.370;-0.486;2023-04-19T03:21:14;102364.66;;;8.59;79.66
71424;BME280;59240;51.370;-0.486;2023-04-19T03:23:41;102364.66;;;8.61;79.74
71424;BME280;59240;51.370;-0.486;2023-04-19T03:26:08;102348.13;;;8.53;78.89
71424;BME280;59240;51.370;-0.486;2023-04-19T03:28:34;102376.84;;;8.66;79.86
71424;BME280;59240;51.370;-0.486;2023-04-19T03:31:01;102365.44;;;8.55;78.84
71424;BME280;59240;51.370;-0.486;2023-04-19T03:33:28;102351.53;;;8.50;79.64
71424;BME280;59240;51.370;-0.486;2023-04-19T03:35:55;102326.28;;;8.37;79.52
71424;BME280;59240;51.370;-0.486;2023-04-19T03:38:22;102317.50;;;8.30;79.63
71424;BME280;59240;51.370;-0.486;2023-04-19T03:40:48;102342.84;;;8.45;79.92
71424;BME280;59240;51.370;-0.486;2023-04-19T03:43:15;102324.53;;;8.36;78.61
71424;BME280;59240;51.370;-0.486;2023-04-19T03:45:42;102341.13;;;8.50;79.41
71424;BME280;59240;51.370;-0.486;2023-04-19T03:48:09;102335.88;;;8.44;79.14
71424;BME280;59240;51.370;-0.486;2023-04-19T03:50:35;102341.13;;;8.50;79.14
71424;BME280;59240;51.370;-0.486;2023-04-19T03:53:03;102348.09;;;8.51;79.74
71424;BME280;59240;51.370;-0.486;2023-04-19T03:55:30;102355.13;;;8.58;80.51
71424;BME280;59240;51.370;-0.486;2023-04-19T03:57:57;102337.59;;;8.42;80.47
71424;BME280;59240;51.370;-0.486;2023-04-19T04:00:31;102317.53;;;8.32;79.37
71424;BME280;59240;51.370;-0.486;2023-04-19T04:02:58;102362.06;;;8.62;80.69
71424;BME280;59240;51.370;-0.486;2023-04-19T04:05:26;102369.00;;;8.63;80.39
71424;BME280;59240;51.370;-0.486;2023-04-19T04:07:53;102341.19;;;8.53;80.21
71424;BME280;59240;51.370;-0.486;2023-04-19T04:10:21;102328.06;;;8.41;79.72
71424;BME280;59240;51.370;-0.486;2023-04-19T04:12:48;102311.53;;;8.36;80.15
71424;BME280;59240;51.370;-0.486;2023-04-19T04:15:15;102356.88;;;8.62;80.75
71424;BME280;59240;51.370;-0.486;2023-04-19T04:17:41;102358.66;;;8.66;80.61
71424;BME280;59240;51.370;-0.486;2023-04-19T04:20:08;102339.41;;;8.50;80.50
71424;BME280;59240;51.370;-0.486;2023-04-19T04:22:40;102318.56;;;8.43;80.41
71424;BME280;59240;51.370;-0.486;2023-04-19T04:25:08;102349.88;;;8.55;80.78
71424;BME280;59240;51.370;-0.486;2023-04-19T04:27:35;102349.84;;;8.52;80.23
71424;BME280;59240;51.370;-0.486;2023-04-19T04:30:02;102360.34;;;8.61;80.80
71424;BME280;59240;51.370;-0.486;2023-04-19T04:32:29;102323.75;;;8.41;80.37
71424;BME280;59240;51.370;-0.486;2023-04-19T04:34:56;102359.41;;;8.58;81.09
71424;BME280;59240;51.370;-0.486;2023-04-19T04:37:23;102346.41;;;8.56;80.54
71424;BME280;59240;51.370;-0.486;2023-04-19T04:39:49;102339.47;;;8.52;80.63
71424;BME280;59240;51.370;-0.486;2023-04-19T04:42:16;102362.13;;;8.65;80.67
71424;BME280;59240;51.370;-0.486;2023-04-19T04:44:43;102345.59;;;8.59;81.74
71424;BME280;59240;51.370;-0.486;2023-04-19T04:47:12;102346.53;;;8.65;81.61
71424;BME280;59240;51.370;-0.486;2023-04-19T04:49:38;102337.81;;;8.60;81.95
71424;BME280;59240;51.370;-0.486;2023-04-19T04:52:05;102379.63;;;8.82;80.99
71424;BME280;59240;51.370;-0.486;2023-04-19T04:54:32;102341.28;;;8.62;81.08
71424;BME280;59240;51.370;-0.486;2023-04-19T04:56:58;102367.47;;;8.81;81.02
71424;BME280;59240;51.370;-0.486;2023-04-19T04:59:25;102357.00;;;8.74;81.73
71424;BME280;59240;51.370;-0.486;2023-04-19T05:01:53;102362.28;;;8.81;80.65
71424;BME280;59240;51.370;-0.486;2023-04-19T05:04:19;102327.38;;;8.57;81.73
71424;BME280;59240;51.370;-0.486;2023-04-19T05:06:46;102319.56;;;8.57;81.96
71424;BME280;59240;51.370;-0.486;2023-04-19T05:09:13;102335.28;;;8.65;81.05
71424;BME280;59240;51.370;-0.486;2023-04-19T05:11:42;102333.56;;;8.68;82.36
71424;BME280;59240;51.370;-0.486;2023-04-19T05:14:09;102385.84;;;8.97;82.00
71424;BME280;59240;51.370;-0.486;2023-04-19T05:16:44;102312.66;;;8.58;81.34
71424;BME280;59240;51.370;-0.486;2023-04-19T05:19:15;102331.81;;;8.67;82.47
71424;BME280;59240;51.370;-0.486;2023-04-19T05:22:02;102285.72;;;8.48;81.54
71424;BME280;59240;51.370;-0.486;2023-04-19T05:24:34;102353.69;;;8.88;81.55
71424;BME280;59240;51.370;-0.486;2023-04-19T05:27:07;102367.56;;;8.90;81.28
71424;BME280;59240;51.370;-0.486;2023-04-19T05:29:37;102383.31;;;9.03;81.53
71424;BME280;59240;51.370;-0.486;2023-04-19T05:32:06;102377.28;;;9.06;82.05
71424;BME280;59240;51.370;-0.486;2023-04-19T05:34:35;102365.03;;;8.97;81.71
71424;BME280;59240;51.370;-0.486;2023-04-19T05:37:04;102380.78;;;9.11;81.67
71424;BME280;59240;51.370;-0.486;2023-04-19T05:39:30;102376.41;;;9.07;81.30
71424;BME280;59240;51.370;-0.486;2023-04-19T05:41:57;102321.59;;;8.84;81.05
71424;BME280;59240;51.370;-0.486;2023-04-19T05:44:27;102338.09;;;8.88;81.09
71424;BME280;59240;51.370;-0.486;2023-04-19T05:46:56;102376.50;;;9.16;80.83
71424;BME280;59240;51.370;-0.486;2023-04-19T05:49:23;102332.03;;;8.87;81.24
71424;BME280;59240;51.370;-0.486;2023-04-19T05:51:52;102352.03;;;8.97;80.81
71424;BME280;59240;51.370;-0.486;2023-04-19T05:54:26;102348.56;;;8.97;80.79
71424;BME280;59240;51.370;-0.486;2023-04-19T05:57:04;102350.38;;;9.04;81.93
71424;BME280;59240;51.370;-0.486;2023-04-19T05:59:30;102376.50;;;9.19;80.81
71424;BME280;59240;51.370;-0.486;2023-04-19T06:01:58;102361.72;;;9.12;80.34
71424;BME280;59240;51.370;-0.486;2023-04-19T06:04:57;102331.19;;;8.90;80.68
71424;BME280;59240;51.370;-0.486;2023-04-19T06:07:36;102322.50;;;8.88;80.90
71424;BME280;59240;51.370;-0.486;2023-04-19T06:10:28;102364.31;;;9.12;81.18
71424;BME280;59240;51.370;-0.486;2023-04-19T06:13:19;102392.28;;;9.35;81.91
71424;BME280;59240;51.370;-0.486;2023-04-19T06:15:46;102360.97;;;9.22;80.81
71424;BME280;59240;51.370;-0.486;2023-04-19T06:18:24;102392.41;;;9.50;80.63
71424;BME280;59240;51.370;-0.486;2023-04-19T06:20:54;102364.59;;;9.41;80.76
71424;BME280;59240;51.370;-0.486;2023-04-19T06:23:23;102354.19;;;9.43;81.62
71424;BME280;59240;51.370;-0.486;2023-04-19T06:26:05;102324.66;;;9.35;80.92
71424;BME280;59240;51.370;-0.486;2023-04-19T06:29:15;102354.34;;;9.67;81.25
71424;BME280;59240;51.370;-0.486;2023-04-19T06:32:10;102320.47;;;9.55;80.59
71424;BME280;59240;51.370;-0.486;2023-04-19T06:34:51;102349.31;;;9.89;80.58
71424;BME280;59240;51.370;-0.486;2023-04-19T06:37:20;102399.88;;;10.27;80.45
71424;BME280;59240;51.370;-0.486;2023-04-19T06:39:52;102360.72;;;10.10;79.99
71424;BME280;59240;51.370;-0.486;2023-04-19T06:42:21;102372.13;;;10.32;80.18
71424;BME280;59240;51.370;-0.486;2023-04-19T06:44:51;102356.53;;;10.38;79.56
71424;BME280;59240;51.370;-0.486;2023-04-19T06:47:29;102401.84;;;10.74;79.74
71424;BME280;59240;51.370;-0.486;2023-04-19T06:49:56;102346.16;;;10.51;79.62
71424;BME280;59240;51.370;-0.486;2023-04-19T06:52:23;102401.00;;;10.96;78.95
71424;BME280;59240;51.370;-0.486;2023-04-19T06:55:13;102327.97;;;10.67;78.98
71424;BME280;59240;51.370;-0.486;2023-04-19T06:58:01;102332.31;;;10.82;78.89
71424;BME280;59240;51.370;-0.486;2023-04-19T07:00:36;102362.81;;;11.06;78.67
71424;BME280;59240;51.370;-0.486;2023-04-19T07:03:10;102404.53;;;11.32;78.26
71424;BME280;59240;51.370;-0.486;2023-04-19T07:06:06;102360.22;;;11.12;78.41
71424;BME280;59240;51.370;-0.486;2023-04-19T07:08:39;102331.50;;;11.00;78.26
71424;BME280;59240;51.370;-0.486;2023-04-19T07:11:31;102388.91;;;11.35;77.80
71424;BME280;59240;51.370;-0.486;2023-04-19T07:14:17;102392.41;;;11.34;77.71
71424;BME280;59240;51.370;-0.486;2023-04-19T07:16:49;102376.72;;;11.25;77.27
71424;BME280;59240;51.370;-0.486;2023-04-19T07:19:32;102372.38;;;11.24;76.99
71424;BME280;59240;51.370;-0.486;2023-04-19T07:22:38;102332.38;;;11.07;77.45
71424;BME280;59240;51.370;-0.486;2023-04-19T07:25:46;102391.53;;;11.41;77.21
71424;BME280;59240;51.370;-0.486;2023-04-19T07:28:29;102343.66;;;11.18;76.11
71424;BME280;59240;51.370;-0.486;2023-04-19T07:30:58;102391.53;;;11.41;76.69
71424;BME280;59240;51.370;-0.486;2023-04-19T07:33:26;102368.03;;;11.26;77.01
71424;BME280;59240;51.370;-0.486;2023-04-19T07:36:06;102377.59;;;11.36;77.24
71424;BME280;59240;51.370;-0.486;2023-04-19T07:38:36;102412.41;;;11.57;76.59
71424;BME280;59240;51.370;-0.486;2023-04-19T07:41:13;102391.50;;;11.44;76.74
71424;BME280;59240;51.370;-0.486;2023-04-19T07:43:40;102415.00;;;11.64;76.02
71424;BME280;59240;51.370;-0.486;2023-04-19T07:46:11;102442.00;;;11.86;76.30
71424;BME280;59240;51.370;-0.486;2023-04-19T07:48:45;102402.84;;;11.60;75.99
71424;BME280;59240;51.370;-0.486;2023-04-19T07:51:16;102374.13;;;11.49;75.97
71424;BME280;59240;51.370;-0.486;2023-04-19T07:53:53;102345.44;;;11.34;75.81
71424;BME280;59240;51.370;-0.486;2023-04-19T07:56:24;102401.09;;;11.67;75.40
71424;BME280;59240;51.370;-0.486;2023-04-19T07:58:56;102419.34;;;11.70;76.24
71424;BME280;59240;51.370;-0.486;2023-04-19T08:01:34;102382.81;;;11.67;75.13
71424;BME280;59240;51.370;-0.486;2023-04-19T08:04:06;102406.31;;;11.87;75.29
71424;BME280;59240;51.370;-0.486;2023-04-19T08:06:36;102428.94;;;12.04;74.72
71424;BME280;59240;51.370;-0.486;2023-04-19T08:09:27;102403.66;;;12.00;74.57
71424;BME280;59240;51.370;-0.486;2023-04-19T08:11:57;102415.81;;;12.20;74.06
71424;BME280;59240;51.370;-0.486;2023-04-19T08:14:47;102423.63;;;12.37;74.64
71424;BME280;59240;51.370;-0.486;2023-04-19T08:17:33;102379.22;;;12.32;74.71
71424;BME280;59240;51.370;-0.486;2023-04-19T08:20:14;102443.47;;;12.88;74.04
71424;BME280;59240;51.370;-0.486;2023-04-19T08:22:45;102445.06;;;13.10;72.86
71424;BME280;59240;51.370;-0.486;2023-04-19T08:25:17;102420.75;;;12.99;72.04
71424;BME280;59240;51.370;-0.486;2023-04-19T08:28:07;102429.44;;;13.04;72.22
71424;BME280;59240;51.370;-0.486;2023-04-19T08:30:34;102402.38;;;13.07;72.89
71424;BME280;59240;51.370;-0.486;2023-04-19T08:33:04;102413.63;;;13.26;71.64
71424;BME280;59240;51.370;-0.486;2023-04-19T08:35:37;102387.47;;;13.23;70.30
71424;BME280;59240;51.370;-0.486;2023-04-19T08:38:10;102425.56;;;13.60;70.76
71424;BME280;59240;51.370;-0.486;2023-04-19T08:40:45;102453.16;;;13.98;70.81
71424;BME280;59240;51.370;-0.486;2023-04-19T08:43:50;102391.94;;;14.08;67.73
71424;BME280;59240;51.370;-0.486;2023-04-19T08:46:22;102389.97;;;14.29;69.86
71424;BME280;59240;51.370;-0.486;2023-04-19T08:48:51;102375.69;;;14.54;68.79
71424;BME280;59240;51.370;-0.486;2023-04-19T08:55:21;102413.56;;;14.98;67.72
71424;BME280;59240;51.370;-0.486;2023-04-19T08:57:59;102437.88;;;15.09;65.34
71424;BME280;59240;51.370;-0.486;2023-04-19T09:03:56;102438.03;;;15.00;68.01
71424;BME280;59240;51.370;-0.486;2023-04-19T09:06:36;102420.84;;;14.77;66.44
71424;BME280;59240;51.370;-0.486;2023-04-19T09:09:23;102397.63;;;14.44;63.87
71424;BME280;59240;51.370;-0.486;2023-04-19T09:12:21;102404.63;;;14.43;67.28
71424;BME280;59240;51.370;-0.486;2023-04-19T09:14:52;102382.88;;;14.37;67.28
71424;BME280;59240;51.370;-0.486;2023-04-19T09:17:28;102426.41;;;14.53;65.96
71424;BME280;59240;51.370;-0.486;2023-04-19T09:19:57;102408.09;;;14.45;66.54
71424;BME280;59240;51.370;-0.486;2023-04-19T09:22:26;102408.91;;;14.55;66.37
71424;BME280;59240;51.370;-0.486;2023-04-19T09:25:24;102381.94;;;14.39;65.56
71424;BME280;59240;51.370;-0.486;2023-04-19T09:28:16;102403.66;;;14.55;65.97
71424;BME280;59240;51.370;-0.486;2023-04-19T09:30:45;102385.41;;;14.44;66.05
71424;BME280;59240;51.370;-0.486;2023-04-19T09:33:35;102391.47;;;14.51;65.61
71424;BME280;59240;51.370;-0.486;2023-04-19T09:36:06;102452.25;;;14.84;66.51
71424;BME280;59240;51.370;-0.486;2023-04-19T09:38:45;102459.16;;;14.91;65.05
71424;BME280;59240;51.370;-0.486;2023-04-19T09:41:30;102374.94;;;14.43;65.52
71424;BME280;59240;51.370;-0.486;2023-04-19T09:44:12;102393.13;;;14.58;65.03
71424;BME280;59240;51.370;-0.486;2023-04-19T09:46:51;102380.91;;;14.54;64.54
71424;BME280;59240;51.370;-0.486;2023-04-19T09:49:28;102380.84;;;14.60;65.93
71424;BME280;59240;51.370;-0.486;2023-04-19T09:55:52;102387.78;;;14.64;63.67
71424;BME280;59240;51.370;-0.486;2023-04-19T09:58:46;102400.75;;;14.75;65.30
71424;BME280;59240;51.370;-0.486;2023-04-19T10:04:56;102360.81;;;14.56;64.05
71424;BME280;59240;51.370;-0.486;2023-04-19T10:07:59;102388.59;;;14.71;62.72
71424;BME280;59240;51.370;-0.486;2023-04-19T10:10:47;102348.66;;;14.47;63.75
71424;BME280;59240;51.370;-0.486;2023-04-19T10:13:23;102412.09;;;14.78;64.46
71424;BME280;59240;51.370;-0.486;2023-04-19T10:16:03;102407.63;;;14.85;64.21
71424;BME280;59240;51.370;-0.486;2023-04-19T10:18:49;102340.66;;;14.58;64.20
71424;BME280;59240;51.370;-0.486;2023-04-19T10:21:55;102424.63;;;15.20;63.41
71424;BME280;59240;51.370;-0.486;2023-04-19T10:24:39;102362.72;;;15.05;64.08
71424;BME280;59240;51.370;-0.486;2023-04-19T10:27:38;102325.28;;;14.94;62.66
71424;BME280;59240;51.370;-0.486;2023-04-19T10:30:53;102414.28;;;15.66;60.73
71424;BME280;59240;51.370;-0.486;2023-04-19T10:33:34;102403.50;;;15.81;62.51
71424;BME280;59240;51.370;-0.486;2023-04-19T10:36:14;102386.75;;;15.87;59.83
71424;BME280;59240;51.370;-0.486;2023-04-19T10:38:44;102375.53;;;15.79;60.67
71424;BME280;59240;51.370;-0.486;2023-04-19T10:42:15;102422.34;;;16.05;59.98
71424;BME280;59240;51.370;-0.486;2023-04-19T10:47:57;102332.13;;;15.55;61.24
71424;BME280;59240;51.370;-0.486;2023-04-19T10:54:40;102320.28;;;15.32;60.36
71424;BME280;59240;51.370;-0.486;2023-04-19T11:07:23;102316.91;;;15.24;58.39
71424;BME280;59240;51.370;-0.486;2023-04-19T11:10:02;102364.47;;;15.58;59.74
71424;BME280;59240;51.370;-0.486;2023-04-19T11:12:45;102332.97;;;15.58;59.89
71424;BME280;59240;51.370;-0.486;2023-04-19T11:15:15;102346.56;;;15.82;59.29
71424;BME280;59240;51.370;-0.486;2023-04-19T11:18:17;102362.13;;;15.91;58.08
71424;BME280;59240;51.370;-0.486;2023-04-19T11:20:51;102323.31;;;15.59;57.64
71424;BME280;59240;51.370;-0.486;2023-04-19T11:23:18;102392.66;;;16.00;59.65
71424;BME280;59240;51.370;-0.486;2023-04-19T11:25:54;102300.34;;;15.70;59.31
71424;BME280;59240;51.370;-0.486;2023-04-19T11:28:34;102313.94;;;15.94;57.91
71424;BME280;59240;51.370;-0.486;2023-04-19T11:31:17;102336.34;;;16.11;58.49
71424;BME280;59240;51.370;-0.486;2023-04-19T11:36:51;102308.81;;;15.84;58.01
71424;BME280;59240;51.370;-0.486;2023-04-19T11:39:31;102347.13;;;15.98;58.44
71424;BME280;59240;51.370;-0.486;2023-04-19T11:45:29;102281.28;;;16.04;58.44
71424;BME280;59240;51.370;-0.486;2023-04-19T11:51:57;102338.03;;;16.56;57.84
71424;BME280;59240;51.370;-0.486;2023-04-19T11:57:51;102257.75;;;15.98;57.42
71424;BME280;59240;51.370;-0.486;2023-04-19T12:00:26;102256.81;;;16.02;56.79
71424;BME280;59240;51.370;-0.486;2023-04-19T12:03:01;102280.75;;;16.30;57.43
71424;BME280;59240;51.370;-0.486;2023-04-19T12:05:35;102288.09;;;16.53;56.51
71424;BME280;59240;51.370;-0.486;2023-04-19T12:08:35;102293.09;;;16.65;54.25
71424;BME280;59240;51.370;-0.486;2023-04-19T12:11:08;102305.00;;;16.81;54.93
71424;BME280;59240;51.370;-0.486;2023-04-19T12:13:44;102312.78;;;17.23;55.36
71424;BME280;59240;51.370;-0.486;2023-04-19T12:16:42;102340.38;;;17.78;53.21
71424;BME280;59240;51.370;-0.486;2023-04-19T12:19:26;102299.63;;;17.88;53.99
71424;BME280;59240;51.370;-0.486;2023-04-19T12:22:06;102326.22;;;18.12;50.36
71424;BME280;59240;51.370;-0.486;2023-04-19T12:24:49;102223.94;;;17.61;51.79
71424;BME280;59240;51.370;-0.486;2023-04-19T12:30:23;102314.47;;;18.51;52.51
71424;BME280;59240;51.370;-0.486;2023-04-19T12:32:53;102324.13;;;18.82;51.37
71424;BME280;59240;51.370;-0.486;2023-04-19T12:35:26;102275.38;;;18.64;51.18
71424;BME280;59240;51.370;-0.486;2023-04-19T12:41:11;102252.91;;;18.80;50.85
71424;BME280;59240;51.370;-0.486;2023-04-19T12:43:47;102232.00;;;18.73;50.17
71424;BME280;59240;51.370;-0.486;2023-04-19T12:46:14;102214.78;;;18.59;50.49
71424;BME280;59240;51.370;-0.486;2023-04-19T12:48:49;102208.72;;;18.57;49.20
71424;BME280;59240;51.370;-0.486;2023-04-19T12:51:20;102276.88;;;18.73;49.97
71424;BME280;59240;51.370;-0.486;2023-04-19T12:53:49;102306.75;;;18.75;49.87
71424;BME280;59240;51.370;-0.486;2023-04-19T12:56:18;102288.28;;;18.45;49.92
71424;BME280;59240;51.370;-0.486;2023-04-19T12:58:53;102277.25;;;18.33;49.95
71424;BME280;59240;51.370;-0.486;2023-04-19T13:01:22;102258.31;;;18.18;51.04
71424;BME280;59240;51.370;-0.486;2023-04-19T13:04:02;102231.66;;;17.99;49.70
71424;BME280;59240;51.370;-0.486;2023-04-19T13:06:39;102251.84;;;18.00;49.13
71424;BME280;59240;51.370;-0.486;2023-04-19T13:09:16;102239.50;;;18.01;50.82
71424;BME280;59240;51.370;-0.486;2023-04-19T13:12:02;102248.38;;;18.28;49.24
71424;BME280;59240;51.370;-0.486;2023-04-19T13:14:29;102216.59;;;18.31;50.33
71424;BME280;59240;51.370;-0.486;2023-04-19T13:16:58;102295.09;;;19.08;49.89
71424;BME280;59240;51.370;-0.486;2023-04-19T13:19:50;102238.00;;;18.78;48.69
71424;BME280;59240;51.370;-0.486;2023-04-19T13:22:49;102236.75;;;18.62;47.60
71424;BME280;59240;51.370;-0.486;2023-04-19T13:25:37;102192.16;;;18.26;49.05
71424;BME280;59240;51.370;-0.486;2023-04-19T13:28:04;102216.75;;;18.26;49.00
71424;BME280;59240;51.370;-0.486;2023-04-19T13:30:31;102262.72;;;18.47;48.52
71424;BME280;59240;51.370;-0.486;2023-04-19T13:32:58;102257.28;;;18.24;49.06
71424;BME280;59240;51.370;-0.486;2023-04-19T13:35:27;102266.22;;;18.20;48.64
71424;BME280;59240;51.370;-0.486;2023-04-19T13:37:53;102230.47;;;17.80;49.22
71424;BME280;59240;51.370;-0.486;2023-04-19T13:40:21;102249.03;;;17.75;49.39
71424;BME280;59240;51.370;-0.486;2023-04-19T13:42:55;102219.81;;;17.52;48.88
71424;BME280;59240;51.370;-0.486;2023-04-19T13:45:26;102231.22;;;17.53;48.54
71424;BME280;59240;51.370;-0.486;2023-04-19T13:48:12;102262.72;;;17.56;47.46
71424;BME280;59240;51.370;-0.486;2023-04-19T13:50:53;102222.81;;;17.38;49.32
71424;BME280;59240;51.370;-0.486;2023-04-19T13:53:32;102232.56;;;17.36;48.33
71424;BME280;59240;51.370;-0.486;2023-04-19T13:56:05;102209.66;;;17.06;46.32
71424;BME280;59240;51.370;-0.486;2023-04-19T13:58:35;102224.97;;;17.24;48.55
71424;BME280;59240;51.370;-0.486;2023-04-19T14:01:02;102244.75;;;17.70;48.78
71424;BME280;59240;51.370;-0.486;2023-04-19T14:03:30;102229.81;;;18.01;47.16
71424;BME280;59240;51.370;-0.486;2023-04-19T14:06:10;102232.06;;;18.43;46.67
71424;BME280;59240;51.370;-0.486;2023-04-19T14:08:39;102232.63;;;18.81;46.65